Time;durP1;ratioP1;P1;durP2;ratioP2;P2;SDS_P1;SDS_P2;PMS_P1;PMS_P2;Temp;Humidity;BMP_temperature;BMP_pressure;BME280_temperature;BME280_humidity;BME280_pressure;Samples;Min_cycle;Max_cycle;Signal;HPM_P1;HPM_P2
2024/01/25 00:00:55;;;;;;;10.98;9.98;;;10.50;99.90;;;;;;5094608;28;20061;-66
2024/01/25 00:03:20;;;;;;;10.80;9.77;;;10.50;99.90;;;;;;5095208;28;20086;-66
2024/01/25 00:05:47;;;;;;;10.38;9.35;;;10.50;99.90;;;;;;5094643;28;20020;-67
2024/01/25 00:08:13;;;;;;;10.18;9.00;;;10.50;99.90;;;;;;5094990;28;20020;-67
2024/01/25 00:10:38;;;;;;;10.02;9.10;;;10.40;99.90;;;;;;5095097;28;20065;-67
2024/01/25 00:13:04;;;;;;;9.80;8.90;;;10.40;99.90;;;;;;5094399;28;20028;-67
2024/01/25 00:15:30;;;;;;;9.38;8.55;;;10.30;99.90;;;;;;5094307;28;20107;-67
2024/01/25 00:17:56;;;;;;;8.75;7.95;;;10.20;99.90;;;;;;5094557;28;20032;-67
2024/01/25 00:20:22;;;;;;;8.93;8.13;;;10.20;99.90;;;;;;5094623;28;20024;-68
2024/01/25 00:22:48;;;;;;;9.05;8.15;;;10.40;99.90;;;;;;5094526;28;20085;-67
2024/01/25 00:25:13;;;;;;;10.23;9.23;;;10.60;99.90;;;;;;5094356;28;20038;-67
2024/01/25 00:27:39;;;;;;;10.20;9.02;;;10.70;99.90;;;;;;5092874;28;20098;-67
2024/01/25 00:30:05;;;;;;;10.23;9.23;;;10.70;99.90;;;;;;5094028;28;20115;-67
2024/01/25 00:32:31;;;;;;;10.48;9.13;;;10.70;99.90;;;;;;5094221;28;20088;-67
2024/01/25 00:34:57;;;;;;;10.20;9.07;;;10.70;99.90;;;;;;5094075;28;20036;-67
2024/01/25 00:37:23;;;;;;;9.23;8.32;;;10.60;99.90;;;;;;5094334;28;20024;-67
2024/01/25 00:39:49;;;;;;;9.27;8.40;;;10.50;99.90;;;;;;5093906;28;20320;-67
2024/01/25 00:42:16;;;;;;;10.32;9.32;;;10.40;99.90;;;;;;5094149;28;20045;-67
2024/01/25 00:44:42;;;;;;;10.80;9.50;;;10.20;99.90;;;;;;5093973;28;20500;-67
2024/01/25 00:47:08;;;;;;;10.07;9.07;;;10.10;99.90;;;;;;5093949;28;20022;-67
2024/01/25 00:49:35;;;;;;;10.30;8.60;;;10.10;99.90;;;;;;5093547;28;20559;-66
2024/01/25 00:52:03;;;;;;;9.75;8.82;;;10.00;99.90;;;;;;5093886;28;20024;-67
2024/01/25 00:54:29;;;;;;;9.80;8.90;;;9.90;99.90;;;;;;5094048;28;20036;-67
2024/01/25 00:56:55;;;;;;;9.73;8.85;;;9.90;99.90;;;;;;5094135;28;20032;-66
2024/01/25 00:59:21;;;;;;;9.82;8.70;;;9.90;99.90;;;;;;5093219;28;20028;-67
2024/01/25 01:01:50;;;;;;;9.85;9.00;;;9.80;99.90;;;;;;5093858;28;20099;-67
2024/01/25 01:04:16;;;;;;;10.63;9.52;;;9.80;99.90;;;;;;5094077;28;20024;-67
2024/01/25 01:06:42;;;;;;;10.50;9.50;;;9.80;99.90;;;;;;5093433;28;20405;-66
2024/01/25 01:09:08;;;;;;;12.25;11.05;;;9.70;99.90;;;;;;5094728;28;20012;-67
2024/01/25 01:11:33;;;;;;;12.85;11.60;;;9.70;99.90;;;;;;5113768;28;20032;-67
2024/01/25 01:14:00;;;;;;;12.98;11.68;;;9.70;99.90;;;;;;5113794;28;20023;-67
2024/01/25 01:16:26;;;;;;;14.02;12.55;;;9.70;99.90;;;;;;5113351;28;20065;-67
2024/01/25 01:18:51;;;;;;;14.02;12.63;;;9.70;99.90;;;;;;5111014;28;20024;-67
2024/01/25 01:21:17;;;;;;;13.68;12.27;;;9.60;99.90;;;;;;5093684;28;20031;-67
2024/01/25 01:23:43;;;;;;;12.90;11.60;;;9.60;99.90;;;;;;5093217;28;20066;-66
2024/01/25 01:26:08;;;;;;;12.95;11.65;;;9.50;99.90;;;;;;5093463;28;20028;-67
2024/01/25 01:28:34;;;;;;;12.30;11.15;;;9.50;99.90;;;;;;5092314;28;20099;-67
2024/01/25 01:30:59;;;;;;;12.43;11.23;;;9.50;99.90;;;;;;5093400;28;20505;-67
2024/01/25 01:33:25;;;;;;;12.23;11.02;;;9.40;99.90;;;;;;5092867;28;20023;-67
2024/01/25 01:35:51;;;;;;;12.35;11.07;;;9.40;99.90;;;;;;5092468;28;20127;-66
2024/01/25 01:38:16;;;;;;;12.07;10.80;;;9.40;99.90;;;;;;5093002;28;20385;-67
2024/01/25 01:40:45;;;;;;;12.77;11.57;;;9.30;99.90;;;;;;5092680;28;20063;-67
2024/01/25 01:43:18;;;;;;;12.32;11.20;;;9.30;99.90;;;;;;5092607;28;20024;-67
2024/01/25 01:45:44;;;;;;;12.32;11.07;;;9.30;99.90;;;;;;5092981;28;20016;-67
2024/01/25 01:48:09;;;;;;;12.48;11.23;;;9.20;99.90;;;;;;5090767;28;20555;-67
2024/01/25 01:50:35;;;;;;;12.57;11.20;;;9.20;99.90;;;;;;5093057;28;20024;-67
2024/01/25 01:53:01;;;;;;;12.98;11.68;;;9.30;99.90;;;;;;5092705;28;20077;-67
2024/01/25 01:55:27;;;;;;;13.00;11.63;;;9.30;99.90;;;;;;5092572;28;20078;-66
2024/01/25 01:57:53;;;;;;;12.88;11.68;;;9.30;99.90;;;;;;5092256;28;20375;-66
2024/01/25 02:00:20;;;;;;;12.40;11.20;;;9.40;99.90;;;;;;5092595;28;20400;-67
2024/01/25 02:02:46;;;;;;;12.43;11.13;;;9.30;99.90;;;;;;5092439;28;20028;-66
2024/01/25 02:05:12;;;;;;;11.48;10.38;;;9.30;99.90;;;;;;5092574;28;20016;-66
2024/01/25 02:07:40;;;;;;;10.45;9.35;;;9.40;99.90;;;;;;5092576;28;20029;-67
2024/01/25 02:10:07;;;;;;;10.10;9.20;;;9.60;99.90;;;;;;5092483;28;20078;-67
2024/01/25 02:12:32;;;;;;;9.80;8.70;;;9.70;99.90;;;;;;5090794;28;20481;-67
2024/01/25 02:14:58;;;;;;;9.57;8.63;;;9.80;99.90;;;;;;5092373;28;20067;-67
2024/01/25 02:17:23;;;;;;;9.60;8.70;;;9.80;99.90;;;;;;5092425;28;20113;-67
2024/01/25 02:19:49;;;;;;;8.52;7.72;;;9.90;99.90;;;;;;5092252;28;20162;-67
2024/01/25 02:22:18;;;;;;;9.02;8.10;;;9.90;99.90;;;;;;5092276;28;20082;-67
2024/01/25 02:24:44;;;;;;;8.43;7.47;;;9.80;99.90;;;;;;5092009;28;20027;-67
2024/01/25 02:27:10;;;;;;;8.60;7.70;;;9.70;99.90;;;;;;5090973;28;20024;-66
2024/01/25 02:29:35;;;;;;;9.15;7.50;;;9.60;99.90;;;;;;5092074;28;20436;-67
2024/01/25 02:32:01;;;;;;;8.70;7.43;;;9.40;99.90;;;;;;5092152;28;20447;-67
2024/01/25 02:34:27;;;;;;;7.70;7.00;;;9.30;99.90;;;;;;5092442;28;20065;-67
2024/01/25 02:36:52;;;;;;;7.45;6.75;;;9.20;99.90;;;;;;5091712;28;20035;-66
2024/01/25 02:39:18;;;;;;;7.72;7.00;;;9.10;99.90;;;;;;5091586;28;20114;-66
2024/01/25 02:41:44;;;;;;;8.00;7.30;;;9.00;99.90;;;;;;5091877;28;20043;-66
2024/01/25 02:44:11;;;;;;;8.50;7.70;;;8.90;99.90;;;;;;5091904;28;20016;-67
2024/01/25 02:46:36;;;;;;;7.90;7.20;;;8.90;99.90;;;;;;5091688;28;20099;-67
2024/01/25 02:49:02;;;;;;;7.97;7.28;;;8.80;99.90;;;;;;5091948;28;20028;-66
2024/01/25 02:51:28;;;;;;;7.80;7.10;;;8.80;99.90;;;;;;5091938;28;20035;-67
2024/01/25 02:53:53;;;;;;;7.30;6.60;;;8.70;99.90;;;;;;5092153;28;20024;-66
2024/01/25 02:56:19;;;;;;;7.13;5.35;;;8.70;99.90;;;;;;5091632;28;20036;-66
2024/01/25 02:58:45;;;;;;;7.05;6.40;;;8.60;99.90;;;;;;5093831;28;20024;-66
2024/01/25 03:01:10;;;;;;;6.90;6.32;;;8.60;99.90;;;;;;5096085;28;20028;-67
2024/01/25 03:03:36;;;;;;;7.18;6.53;;;8.60;99.90;;;;;;5095888;28;20474;-67
2024/01/25 03:06:02;;;;;;;7.32;6.70;;;8.60;99.90;;;;;;5096025;28;20460;-67
2024/01/25 03:08:28;;;;;;;8.00;7.30;;;8.50;99.90;;;;;;5095901;28;20039;-66
2024/01/25 03:10:54;;;;;;;7.07;6.47;;;8.50;99.90;;;;;;5110921;28;20031;-67
2024/01/25 03:13:20;;;;;;;8.55;7.78;;;8.50;99.90;;;;;;5116636;28;20028;-67
2024/01/25 03:15:46;;;;;;;8.05;7.35;;;8.50;99.90;;;;;;5116115;28;20098;-66
2024/01/25 03:18:11;;;;;;;8.73;7.80;;;8.50;99.90;;;;;;5116077;28;20058;-66
2024/01/25 03:20:37;;;;;;;8.13;7.43;;;8.50;99.90;;;;;;5100165;28;20027;-67
2024/01/25 03:23:03;;;;;;;8.75;7.85;;;8.50;99.90;;;;;;5095405;28;20040;-67
2024/01/25 03:25:28;;;;;;;7.72;7.03;;;8.60;99.90;;;;;;5095671;28;20028;-67
2024/01/25 03:27:54;;;;;;;8.65;7.85;;;8.50;99.90;;;;;;5095877;28;20382;-66
2024/01/25 03:30:19;;;;;;;8.43;7.72;;;8.50;99.90;;;;;;5095525;28;20368;-66
2024/01/25 03:32:46;;;;;;;9.68;7.35;;;8.50;99.90;;;;;;5095066;28;20017;-67
2024/01/25 03:35:12;;;;;;;8.02;7.22;;;8.50;99.90;;;;;;5074869;28;20024;-67
2024/01/25 03:37:37;;;;;;;8.63;7.93;;;8.50;99.90;;;;;;5088148;28;20386;-67
2024/01/25 03:40:04;;;;;;;8.40;7.70;;;8.50;99.90;;;;;;5094957;28;20402;-66
2024/01/25 03:42:30;;;;;;;8.75;7.95;;;8.40;99.90;;;;;;5095244;28;20561;-67
2024/01/25 03:44:56;;;;;;;10.27;7.72;;;8.30;99.90;;;;;;5095459;28;20154;-67
2024/01/25 03:47:21;;;;;;;8.68;7.88;;;8.30;99.90;;;;;;5095481;28;20047;-67
2024/01/25 03:49:48;;;;;;;9.20;8.40;;;8.20;99.90;;;;;;5095362;28;20103;-67
2024/01/25 03:52:13;;;;;;;9.18;8.38;;;8.20;99.90;;;;;;5094822;28;20021;-67
2024/01/25 03:54:39;;;;;;;9.23;8.40;;;8.40;99.90;;;;;;5094953;28;20040;-67
2024/01/25 03:57:04;;;;;;;8.48;7.78;;;8.60;99.90;;;;;;5095042;28;20128;-67
2024/01/25 03:59:31;;;;;;;8.60;7.72;;;8.70;99.90;;;;;;5094869;28;20064;-67
2024/01/25 04:01:56;;;;;;;8.45;7.65;;;8.80;99.90;;;;;;5094877;28;20452;-67
2024/01/25 04:04:22;;;;;;;7.75;6.95;;;8.90;99.90;;;;;;5094843;28;20103;-67
2024/01/25 04:06:48;;;;;;;8.25;7.45;;;9.00;99.90;;;;;;5094900;28;20024;-67
2024/01/25 04:09:15;;;;;;;8.50;7.22;;;9.10;99.90;;;;;;5094691;28;20056;-66
2024/01/25 04:11:41;;;;;;;8.13;7.43;;;9.10;99.90;;;;;;5093935;28;20028;-67
2024/01/25 04:14:06;;;;;;;9.32;7.70;;;8.90;99.90;;;;;;5094822;28;20020;-67
2024/01/25 04:16:33;;;;;;;8.02;7.28;;;8.70;99.90;;;;;;5094748;28;20418;-67
2024/01/25 04:18:59;;;;;;;8.27;7.47;;;8.60;99.90;;;;;;5094334;28;20028;-67
2024/01/25 04:21:25;;;;;;;8.05;7.30;;;8.50;99.90;;;;;;5094332;28;20031;-66
2024/01/25 04:23:50;;;;;;;8.65;7.47;;;8.40;99.90;;;;;;5094962;28;20036;-67
2024/01/25 04:26:16;;;;;;;8.32;7.63;;;8.30;99.90;;;;;;5094454;28;20046;-66
2024/01/25 04:28:42;;;;;;;9.05;8.25;;;8.30;99.90;;;;;;5094493;28;20024;-67
2024/01/25 04:31:08;;;;;;;8.35;7.65;;;8.20;99.90;;;;;;5094357;28;20024;-67
2024/01/25 04:33:33;;;;;;;8.02;7.32;;;8.10;99.90;;;;;;5094201;28;20028;-67
2024/01/25 04:35:59;;;;;;;8.95;8.23;;;8.20;99.90;;;;;;5094257;28;20056;-67
2024/01/25 04:38:25;;;;;;;9.40;8.60;;;8.20;99.90;;;;;;5094109;28;20475;-67
2024/01/25 04:40:51;;;;;;;9.23;8.43;;;8.20;99.90;;;;;;5093907;28;20043;-66
2024/01/25 04:43:16;;;;;;;9.07;8.23;;;8.10;99.90;;;;;;5094454;28;20020;-67
2024/01/25 04:45:42;;;;;;;9.27;8.48;;;8.10;99.90;;;;;;5094182;28;20486;-67
2024/01/25 04:48:08;;;;;;;9.30;8.40;;;8.10;99.90;;;;;;5093656;28;20020;-67
2024/01/25 04:50:34;;;;;;;9.48;8.68;;;8.10;99.90;;;;;;5093965;28;20044;-67
2024/01/25 04:53:02;;;;;;;11.02;9.15;;;8.10;99.90;;;;;;5093975;28;20100;-66
2024/01/25 04:55:27;;;;;;;9.30;8.40;;;8.00;99.90;;;;;;5093782;28;20107;-67
2024/01/25 04:57:53;;;;;;;9.52;8.52;;;7.90;99.90;;;;;;5093958;28;20161;-67
2024/01/25 05:00:21;;;;;;;10.95;9.60;;;7.90;99.90;;;;;;5093573;28;20024;-67
2024/01/25 05:02:47;;;;;;;9.88;8.88;;;8.00;99.90;;;;;;5093690;28;20359;-66
2024/01/25 05:05:13;;;;;;;9.98;9.00;;;8.00;99.90;;;;;;5093325;28;20020;-66
2024/01/25 05:07:39;;;;;;;10.40;9.40;;;8.00;99.90;;;;;;5093663;28;20043;-67
2024/01/25 05:10:05;;;;;;;10.95;9.85;;;7.90;99.90;;;;;;5094945;28;20066;-66
2024/01/25 05:12:31;;;;;;;11.95;10.73;;;7.90;99.90;;;;;;5113751;28;20032;-66
2024/01/25 05:14:58;;;;;;;13.65;11.05;;;8.00;99.90;;;;;;5113888;28;20062;-67
2024/01/25 05:17:23;;;;;;;11.77;10.68;;;8.00;99.90;;;;;;5113910;28;20039;-67
2024/01/25 05:19:49;;;;;;;11.70;10.48;;;7.90;99.90;;;;;;5106306;28;20471;-67
2024/01/25 05:22:15;;;;;;;11.38;10.20;;;7.90;99.90;;;;;;5092190;28;20052;-67
2024/01/25 05:24:40;;;;;;;11.93;10.75;;;7.80;99.90;;;;;;5092655;28;20073;-67
2024/01/25 05:27:06;;;;;;;12.90;10.82;;;7.80;99.90;;;;;;5093580;28;20532;-67
2024/01/25 05:29:31;;;;;;;13.82;11.20;;;7.80;99.90;;;;;;5093028;28;20046;-67
2024/01/25 05:31:57;;;;;;;12.95;10.63;;;7.70;99.90;;;;;;5093020;28;20416;-67
2024/01/25 05:34:23;;;;;;;15.40;11.25;;;7.70;99.90;;;;;;5092645;28;20390;-67
2024/01/25 05:36:49;;;;;;;12.00;10.38;;;7.70;99.90;;;;;;5093251;28;20024;-67
2024/01/25 05:39:15;;;;;;;11.77;10.18;;;7.60;99.90;;;;;;5092944;28;20024;-67
2024/01/25 05:41:40;;;;;;;12.57;9.98;;;7.60;99.90;;;;;;5092730;28;20048;-67
2024/01/25 05:44:06;;;;;;;10.35;9.35;;;7.60;99.90;;;;;;5092996;28;20043;-66
2024/01/25 05:46:31;;;;;;;10.43;9.35;;;8.00;99.90;;;;;;5092736;28;20124;-66
2024/01/25 05:48:57;;;;;;;11.20;10.00;;;8.10;99.90;;;;;;5092545;28;20440;-66
2024/01/25 05:51:23;;;;;;;11.70;9.20;;;8.10;99.90;;;;;;5093151;28;20040;-67
2024/01/25 05:53:48;;;;;;;11.77;9.95;;;8.30;99.90;;;;;;5092600;28;20098;-67
2024/01/25 05:56:14;;;;;;;10.27;9.05;;;8.30;99.90;;;;;;5092687;28;20032;-67
2024/01/25 05:58:40;;;;;;;9.73;8.75;;;8.30;99.90;;;;;;5093013;28;20065;-66
2024/01/25 06:01:06;;;;;;;9.90;8.90;;;8.30;99.90;;;;;;5092452;28;20024;-66
2024/01/25 06:03:32;;;;;;;12.05;8.88;;;8.30;99.90;;;;;;5092319;28;20024;-67
2024/01/25 06:05:58;;;;;;;13.10;9.07;;;8.10;99.90;;;;;;5092349;28;20119;-66
2024/01/25 06:08:23;;;;;;;14.05;9.55;;;8.00;99.90;;;;;;5091341;28;20508;-66
2024/01/25 06:10:49;;;;;;;13.52;9.02;;;7.80;99.90;;;;;;5088471;28;20024;-65
2024/01/25 06:13:15;;;;;;;11.50;9.38;;;7.80;99.90;;;;;;5085664;28;20068;-66
2024/01/25 06:15:41;;;;;;;11.52;8.70;;;7.70;99.90;;;;;;5074348;28;20060;-66
2024/01/25 06:18:07;;;;;;;12.68;8.88;;;7.70;99.90;;;;;;5071781;28;20090;-66
2024/01/25 06:20:32;;;;;;;11.90;8.57;;;7.60;99.90;;;;;;5083895;28;20027;-66
2024/01/25 06:22:58;;;;;;;10.13;8.27;;;7.60;99.90;;;;;;5091887;28;20078;-65
2024/01/25 06:25:24;;;;;;;10.15;8.05;;;7.50;99.90;;;;;;5092407;28;20020;-66
2024/01/25 06:27:49;;;;;;;9.90;8.32;;;7.50;99.90;;;;;;5088485;28;20036;-66
2024/01/25 06:30:15;;;;;;;11.00;8.63;;;7.40;99.90;;;;;;5084539;28;20032;-66
2024/01/25 06:32:41;;;;;;;12.85;8.70;;;7.40;99.90;;;;;;5091063;28;20517;-66
2024/01/25 06:35:07;;;;;;;11.60;8.60;;;7.40;99.90;;;;;;5091452;28;20028;-66
2024/01/25 06:37:33;;;;;;;9.38;8.48;;;7.40;99.90;;;;;;5091733;28;20036;-66
2024/01/25 06:39:58;;;;;;;10.43;8.73;;;7.40;99.90;;;;;;5091894;28;20051;-66
2024/01/25 06:42:24;;;;;;;10.52;8.10;;;7.40;99.90;;;;;;5091941;28;20107;-66
2024/01/25 06:44:49;;;;;;;9.38;8.30;;;7.30;99.90;;;;;;5091577;28;20103;-66
2024/01/25 06:47:15;;;;;;;9.50;8.20;;;7.30;99.90;;;;;;5091533;28;20028;-66
2024/01/25 06:49:41;;;;;;;9.57;8.25;;;7.30;99.90;;;;;;5091673;28;20008;-66
2024/01/25 06:52:07;;;;;;;9.13;8.23;;;7.30;99.90;;;;;;5091762;28;20044;-66
2024/01/25 06:54:32;;;;;;;10.07;8.05;;;7.20;99.90;;;;;;5091736;28;20024;-66
2024/01/25 06:56:58;;;;;;;11.93;8.52;;;7.20;99.90;;;;;;5091767;28;20058;-66
2024/01/25 06:59:24;;;;;;;13.98;8.35;;;7.20;99.90;;;;;;5091421;28;20099;-66
2024/01/25 07:01:50;;;;;;;10.75;8.55;;;7.30;99.90;;;;;;5091434;28;20025;-66
2024/01/25 07:04:15;;;;;;;10.65;8.63;;;7.20;99.90;;;;;;5092172;28;20020;-66
2024/01/25 07:06:41;;;;;;;11.43;8.35;;;7.10;99.90;;;;;;5091191;28;20024;-66
2024/01/25 07:09:07;;;;;;;10.60;8.00;;;7.10;99.90;;;;;;5091564;28;20032;-66
2024/01/25 07:11:32;;;;;;;11.70;7.80;;;7.10;99.90;;;;;;5091684;28;20024;-66
2024/01/25 07:13:58;;;;;;;8.70;7.82;;;7.20;99.90;;;;;;5108433;28;20145;-66
2024/01/25 07:16:24;;;;;;;9.15;7.82;;;7.10;99.90;;;;;;5097240;28;20118;-65
2024/01/25 07:18:50;;;;;;;9.45;7.90;;;7.10;99.90;;;;;;5091805;28;20024;-66
2024/01/25 07:21:15;;;;;;;8.80;7.95;;;7.20;99.90;;;;;;5091670;28;20030;-66
2024/01/25 07:23:41;;;;;;;9.88;7.97;;;7.20;99.90;;;;;;5091663;28;20024;-66
2024/01/25 07:26:07;;;;;;;9.40;8.00;;;7.10;99.90;;;;;;5092141;28;20021;-66
2024/01/25 07:28:32;;;;;;;10.65;8.20;;;7.00;99.90;;;;;;5091511;28;20028;-66
2024/01/25 07:30:58;;;;;;;12.23;8.15;;;7.10;99.90;;;;;;5091314;28;20028;-66
2024/01/25 07:33:24;;;;;;;10.82;7.70;;;7.00;99.90;;;;;;5091636;28;20028;-66
2024/01/25 07:35:49;;;;;;;13.13;7.90;;;7.20;99.90;;;;;;5091486;28;20024;-66
2024/01/25 07:38:16;;;;;;;16.88;8.48;;;7.40;99.90;;;;;;5091557;28;20501;-66
2024/01/25 07:40:42;;;;;;;14.07;8.02;;;7.70;99.90;;;;;;5091601;28;20048;-66
2024/01/25 07:43:07;;;;;;;15.20;8.80;;;7.90;99.90;;;;;;5091522;28;20028;-66
2024/01/25 07:45:33;;;;;;;12.63;7.82;;;7.90;99.90;;;;;;5092406;28;20111;-67
2024/01/25 07:47:59;;;;;;;10.90;7.05;;;7.90;99.90;;;;;;5095030;28;20067;-66
2024/01/25 07:50:25;;;;;;;10.15;7.50;;;7.90;99.90;;;;;;5095072;28;20119;-66
2024/01/25 07:52:51;;;;;;;14.65;8.27;;;8.00;99.90;;;;;;5095394;28;20485;-66
2024/01/25 07:55:17;;;;;;;11.43;8.52;;;7.90;99.90;;;;;;5094827;28;20106;-66
2024/01/25 07:57:42;;;;;;;11.30;8.60;;;7.80;99.90;;;;;;5094848;28;20055;-66
2024/01/25 08:00:08;;;;;;;9.63;8.55;;;7.80;99.90;;;;;;5094538;28;20498;-66
2024/01/25 08:02:41;;;;;;;11.68;9.02;;;7.80;99.90;;;;;;5094818;28;20494;-66
2024/01/25 08:05:07;;;;;;;10.20;8.98;;;7.90;99.90;;;;;;5094865;28;20051;-66
2024/01/25 08:07:33;;;;;;;14.57;9.95;;;7.90;99.90;;;;;;5094799;28;20474;-66
2024/01/25 08:09:59;;;;;;;17.27;11.05;;;7.90;99.90;;;;;;5093756;28;20150;-66
2024/01/25 08:12:25;;;;;;;16.08;11.27;;;7.90;99.90;;;;;;5086175;28;20027;-66
2024/01/25 08:14:51;;;;;;;14.40;10.70;;;7.90;99.90;;;;;;5074097;28;20047;-66
2024/01/25 08:17:16;;;;;;;14.32;9.88;;;7.90;99.90;;;;;;5074163;28;20040;-66
2024/01/25 08:19:42;;;;;;;11.48;9.63;;;8.00;99.90;;;;;;5077402;28;20026;-66
2024/01/25 08:22:09;;;;;;;10.45;8.95;;;8.00;99.90;;;;;;5094972;28;20028;-66
2024/01/25 08:24:35;;;;;;;9.20;8.30;;;8.10;99.90;;;;;;5094427;28;20028;-66
2024/01/25 08:27:01;;;;;;;9.63;8.32;;;8.10;99.90;;;;;;5094402;28;20024;-65
2024/01/25 08:29:26;;;;;;;9.27;8.07;;;8.20;99.90;;;;;;5093935;28;20032;-65
2024/01/25 08:31:52;;;;;;;9.57;7.35;;;8.30;99.90;;;;;;5094228;28;20028;-66
2024/01/25 08:34:17;;;;;;;9.73;7.43;;;8.40;99.90;;;;;;5094676;28;20030;-65
2024/01/25 08:36:43;;;;;;;7.63;6.93;;;8.60;99.90;;;;;;5093969;28;20386;-66
2024/01/25 08:39:09;;;;;;;6.60;5.93;;;8.70;99.90;;;;;;5094208;28;20482;-66
2024/01/25 08:41:35;;;;;;;6.40;5.80;;;8.80;99.90;;;;;;5093820;28;20123;-65
2024/01/25 08:44:00;;;;;;;5.55;5.05;;;8.90;99.90;;;;;;5093773;28;20028;-66
2024/01/25 08:46:26;;;;;;;5.68;5.07;;;8.90;99.90;;;;;;5094394;28;20409;-66
2024/01/25 08:48:52;;;;;;;5.05;4.63;;;9.00;99.90;;;;;;5093623;28;20024;-66
2024/01/25 08:51:17;;;;;;;5.38;4.88;;;9.10;99.90;;;;;;5094087;28;20035;-66
2024/01/25 08:53:43;;;;;;;6.10;4.60;;;9.10;99.90;;;;;;5092459;28;20028;-66
2024/01/25 08:56:09;;;;;;;5.50;4.10;;;9.20;99.90;;;;;;5093930;28;20028;-66
2024/01/25 08:58:35;;;;;;;4.30;3.90;;;9.20;99.90;;;;;;5093378;28;20021;-66
2024/01/25 09:01:00;;;;;;;8.50;7.70;;;9.30;99.90;;;;;;5093718;28;20024;-66
2024/01/25 09:03:26;;;;;;;5.35;4.63;;;9.30;99.90;;;;;;5093784;28;20107;-66
2024/01/25 09:05:52;;;;;;;5.32;4.28;;;9.40;99.90;;;;;;5093465;28;20034;-66
2024/01/25 09:08:17;;;;;;;4.97;4.47;;;9.40;99.90;;;;;;5094012;28;20123;-66
2024/01/25 09:10:44;;;;;;;4.90;4.40;;;9.50;99.90;;;;;;5091676;28;20020;-66
2024/01/25 09:13:10;;;;;;;5.20;4.32;;;9.60;99.90;;;;;;5093474;28;20540;-66
2024/01/25 09:15:36;;;;;;;4.78;4.38;;;9.60;99.90;;;;;;5081138;28;20021;-66
2024/01/25 09:18:01;;;;;;;4.55;3.75;;;9.70;99.90;;;;;;5082024;28;20071;-66
2024/01/25 09:20:27;;;;;;;4.65;3.35;;;9.80;99.90;;;;;;5097537;28;20115;-66
2024/01/25 09:22:55;;;;;;;3.55;3.25;;;9.80;99.90;;;;;;5093421;28;20486;-66
2024/01/25 09:25:23;;;;;;;3.30;3.03;;;9.80;99.90;;;;;;5093001;28;20035;-65
2024/01/25 09:27:49;;;;;;;3.45;3.10;;;9.90;99.90;;;;;;5093140;28;20024;-66
2024/01/25 09:30:15;;;;;;;4.28;3.05;;;9.90;99.90;;;;;;5093119;28;20028;-66
2024/01/25 09:32:40;;;;;;;3.25;2.95;;;10.10;99.90;;;;;;5091885;28;20394;-66
2024/01/25 09:35:07;;;;;;;5.30;3.15;;;10.30;99.90;;;;;;5093597;28;20043;-66
2024/01/25 09:37:33;;;;;;;7.28;3.33;;;10.50;99.90;;;;;;5092751;28;20043;-66
2024/01/25 09:39:59;;;;;;;4.38;3.03;;;10.60;99.90;;;;;;5092019;28;20044;-67
2024/01/25 09:42:25;;;;;;;3.80;2.92;;;10.80;99.90;;;;;;5092734;28;20032;-66
2024/01/25 09:44:53;;;;;;;5.03;2.90;;;10.90;99.90;;;;;;5092839;28;20020;-66
2024/01/25 09:47:21;;;;;;;3.00;2.40;;;11.00;99.90;;;;;;5093236;28;20081;-66
2024/01/25 09:49:47;;;;;;;3.17;2.40;;;11.00;99.90;;;;;;5092515;28;20107;-66
2024/01/25 09:52:13;;;;;;;5.75;2.55;;;11.10;99.90;;;;;;5092788;28;20169;-66
2024/01/25 09:54:39;;;;;;;5.43;2.75;;;11.10;99.90;;;;;;5092303;28;20028;-66
2024/01/25 09:57:17;;;;;;;4.97;2.65;;;11.10;99.90;;;;;;5092467;28;20044;-66
2024/01/25 09:59:43;;;;;;;4.25;2.53;;;11.10;99.90;;;;;;5092590;28;20104;-66
2024/01/25 10:02:10;;;;;;;4.65;2.75;;;11.10;99.90;;;;;;5092627;28;20038;-66
2024/01/25 10:04:36;;;;;;;4.43;3.08;;;11.10;99.90;;;;;;5092613;28;20386;-66
2024/01/25 10:07:01;;;;;;;4.05;2.88;;;11.00;99.90;;;;;;5092407;28;20077;-66
2024/01/25 10:09:27;;;;;;;3.78;3.00;;;11.10;99.90;;;;;;5092251;28;20106;-66
2024/01/25 10:11:53;;;;;;;3.22;2.55;;;11.10;99.90;;;;;;5092452;28;20030;-66
2024/01/25 10:14:18;;;;;;;2.60;2.40;;;11.10;99.90;;;;;;5092504;28;20030;-66
2024/01/25 10:16:45;;;;;;;3.50;3.20;;;11.20;99.90;;;;;;5092292;28;20069;-66
2024/01/25 10:19:12;;;;;;;2.78;2.58;;;11.20;99.90;;;;;;5092202;28;20020;-67
2024/01/25 10:21:37;;;;;;;2.72;2.28;;;11.30;99.90;;;;;;5092593;28;20043;-66
2024/01/25 10:24:05;;;;;;;2.60;2.40;;;11.40;99.90;;;;;;5091979;28;20475;-66
2024/01/25 10:26:31;;;;;;;4.10;2.38;;;11.40;99.90;;;;;;5092453;28;20031;-66
2024/01/25 10:28:58;;;;;;;3.40;2.17;;;11.50;99.90;;;;;;5092080;28;20020;-66
2024/01/25 10:31:27;;;;;;;6.28;2.97;;;11.50;99.90;;;;;;5091260;28;20039;-66
2024/01/25 10:33:53;;;;;;;3.05;2.75;;;11.60;99.90;;;;;;5092133;28;20047;-66
2024/01/25 10:36:21;;;;;;;3.88;2.60;;;11.60;99.90;;;;;;5091926;28;20085;-66
2024/01/25 10:38:49;;;;;;;4.75;3.10;;;11.70;99.90;;;;;;5091796;28;20548;-66
2024/01/25 10:41:15;;;;;;;4.20;3.03;;;11.70;99.90;;;;;;5091900;28;20127;-66
2024/01/25 10:43:41;;;;;;;3.08;2.50;;;11.80;99.90;;;;;;5091640;28;20429;-66
2024/01/25 10:46:08;;;;;;;2.30;2.08;;;11.90;99.90;;;;;;5091913;28;20387;-66
2024/01/25 10:48:34;;;;;;;3.05;2.00;;;11.90;99.90;;;;;;5091747;28;20093;-66
2024/01/25 10:51:04;;;;;;;2.17;1.95;;;11.90;99.90;;;;;;5092171;28;20078;-67
2024/01/25 10:53:34;;;;;;;3.45;2.13;;;12.00;99.90;;;;;;5091576;28;20032;-67
2024/01/25 10:56:01;;;;;;;194.98;15.27;;;12.10;99.90;;;;;;5091830;28;20058;-68
2024/01/25 10:58:35;;;;;;;199.45;14.18;;;12.40;99.90;;;;;;5091751;28;20020;-68
2024/01/25 11:01:03;;;;;;;158.63;10.95;;;12.50;99.90;;;;;;5090483;28;20394;-68
2024/01/25 11:03:30;;;;;;;72.90;6.68;;;12.60;99.90;;;;;;5092324;28;20040;-67
2024/01/25 11:06:08;;;;;;;40.60;4.53;;;12.70;99.90;;;;;;5091711;28;20498;-67
2024/01/25 11:08:34;;;;;;;158.63;11.52;;;12.80;99.90;;;;;;5091497;28;20111;-68
2024/01/25 11:10:59;;;;;;;81.35;6.25;;;13.00;99.90;;;;;;5091704;28;20111;-68
2024/01/25 11:13:27;;;;;;;39.65;3.60;;;13.00;99.90;;;;;;5092199;28;20024;-67
2024/01/25 11:15:53;;;;;;;12.82;2.40;;;13.10;99.90;;;;;;5106508;28;20038;-67
2024/01/25 11:18:18;;;;;;;6.68;2.30;;;13.20;99.90;;;;;;5111923;28;20110;-67
2024/01/25 11:20:48;;;;;;;3.88;1.70;;;13.30;99.90;;;;;;5104332;28;20029;-67
2024/01/25 11:23:16;;;;;;;2.42;1.90;;;13.40;99.90;;;;;;5095402;28;20020;-67
2024/01/25 11:25:46;;;;;;;7.03;2.05;;;13.60;99.90;;;;;;5094959;28;20382;-67
2024/01/25 11:28:14;;;;;;;4.95;2.03;;;13.90;99.90;;;;;;5095731;28;20012;-67
2024/01/25 11:30:40;;;;;;;5.25;1.88;;;14.20;99.90;;;;;;5093894;28;20108;-67
2024/01/25 11:33:09;;;;;;;4.63;2.10;;;14.20;99.90;;;;;;5095608;28;20541;-67
2024/01/25 11:35:36;;;;;;;4.93;1.77;;;14.40;99.90;;;;;;5095333;28;20020;-68
2024/01/25 11:38:01;;;;;;;4.03;1.80;;;14.30;99.90;;;;;;5094730;28;20425;-67
2024/01/25 11:40:31;;;;;;;4.68;1.83;;;14.30;99.90;;;;;;5095582;28;20040;-67
2024/01/25 11:42:57;;;;;;;2.10;1.55;;;14.20;99.90;;;;;;5095349;28;20047;-67
2024/01/25 11:45:23;;;;;;;1.70;1.60;;;14.10;99.90;;;;;;5095349;28;20027;-67
2024/01/25 11:47:50;;;;;;;2.97;1.67;;;14.10;99.90;;;;;;5093481;28;20036;-67
2024/01/25 11:50:16;;;;;;;1.60;1.50;;;14.30;99.90;;;;;;5092701;28;20103;-67
2024/01/25 11:52:41;;;;;;;2.03;1.40;;;14.40;99.90;;;;;;5090495;28;20474;-66
2024/01/25 11:55:09;;;;;;;2.38;1.50;;;14.50;99.90;;;;;;5095032;28;20039;-67
2024/01/25 11:57:37;;;;;;;2.00;1.42;;;14.60;99.90;;;;;;5094924;28;20055;-66
2024/01/25 12:00:05;;;;;;;1.63;1.50;;;14.60;99.90;;;;;;5093477;28;20052;-66
2024/01/25 12:02:31;;;;;;;2.47;1.80;;;14.70;99.90;;;;;;5079562;28;20028;-67
2024/01/25 12:04:57;;;;;;;3.17;1.70;;;14.70;99.90;;;;;;5074096;28;20056;-67
2024/01/25 12:07:23;;;;;;;20.58;5.65;;;14.70;99.90;;;;;;5074436;28;20114;-67
2024/01/25 12:10:04;;;;;;;38.03;10.10;;;14.70;99.90;;;;;;5074458;28;20171;-67
2024/01/25 12:12:30;;;;;;;35.97;10.13;;;14.60;99.90;;;;;;5094613;28;20024;-67
2024/01/25 12:14:59;;;;;;;32.53;10.00;;;14.60;99.90;;;;;;5094534;28;20031;-67
2024/01/25 12:17:29;;;;;;;34.22;9.38;;;14.60;99.90;;;;;;5094373;28;20055;-67
2024/01/25 12:19:56;;;;;;;26.95;8.15;;;14.60;99.90;;;;;;5094040;28;20028;-67
2024/01/25 12:22:22;;;;;;;25.98;7.60;;;14.50;99.90;;;;;;5094402;28;20069;-67
2024/01/25 12:24:48;;;;;;;29.60;7.88;;;14.60;99.90;;;;;;5092616;28;20024;-68
2024/01/25 12:27:15;;;;;;;20.20;7.05;;;14.60;99.90;;;;;;5082747;28;20402;-68
2024/01/25 12:29:43;;;;;;;21.85;6.20;;;14.50;99.90;;;;;;5094303;28;20024;-68
2024/01/25 12:32:09;;;;;;;17.02;6.10;;;14.60;99.90;;;;;;5093719;28;20478;-67
2024/01/25 12:34:37;;;;;;;13.65;5.03;;;14.60;99.90;;;;;;5093682;28;20394;-68
2024/01/25 12:37:03;;;;;;;14.63;5.57;;;14.60;99.90;;;;;;5093619;28;20028;-67
2024/01/25 12:39:28;;;;;;;13.65;5.10;;;14.70;99.90;;;;;;5094478;28;20385;-67
2024/01/25 12:41:54;;;;;;;11.73;5.45;;;14.70;99.90;;;;;;5093818;28;20076;-68